Green Bay, WI

12:45 PM CDT en Marzo 28, 2017 (GMT -0500)
Allouez North | | Change Station
Aviso en curso: Special Statement

Alt 607 ft 44.49 °N, 88.01 °W | Updated 1 minute ago

Despejado
Despejado
40.0 ° F
Sensación térmica 36 ° F
N
5.7
Viento Variable Viento desde NNE
Gusts 7.5 mph

Hoy
Alta -- | Baja -- ° F
--% Posibilidad de precipitaciones
Ayer
Alta -- | Baja -- ° F
Precip. -- pul
Presión 30.19 pul
Visibilidad 10.0 Millas
Nubes Despejado
Vientos helados 36 ° F
Punto de rocío 36 ° F
Humedad 84%
Precipitaciones 0.00 pul
Espesor de la nieve No disponible.
6:39 AM 7:14 PM
Luna nueva, 1% visible
METAR KGRB 281653Z 05006KT 10SM CLR 08/04 A3017 RMK AO2 SLP221 T00830039
Presión 30.19 pul
Visibilidad 10.0 Millas
Nubes Despejado
Vientos helados 36 ° F
Punto de rocío 36 ° F
Humedad 84%
Precipitaciones 0.00 pul
Espesor de la nieve No disponible.
6:39 AM 7:14 PM
Luna nueva, 1% visible
METAR KGRB 281653Z 05006KT 10SM CLR 08/04 A3017 RMK AO2 SLP221 T00830039

Get Your Daily Forecast Email!

Thanks for signing up!

Be on the lookout for a verification email in your inbox.

You'll start receiving severe weather alerts in your inbox..

×

10-Day Weather Forecast

Almanac

Astronomía

Mar. 28, 2017 Salida Puesta
Hora real
Crepúsculo civil
Crepúsculo náutico
Crepúsculo astronómico
Luna
Horas de luz
Horas de luz
Tomorrow will be .
, % of the Moon is Illuminated

Extremos de hoy

Máximos del estado Bajos del estado

Community

WunderPhotos

Upload Photos

1,962,540 ¡fotos cargadas!

WunderBlog® & News

Nearby

Calidad del aire

  Calidad del aire Índice AQ Contaminante
Not available.

Grosos de nieve

Estación Profundido Altura

Actividad de terremotos

Ciudad Distance Mag. Tiempo y dato
Magnitud mínima muestra es 2,5.

Actividad de terremotos

Ciudad Distance Mag. Tiempo y dato
Magnitud mínima muestra es 2,5.

Temperaturas de aguas costeras

Lugar Temperatura

Stations

Estaciones meteorológicas cercanas

Ubicación de la estación Temp. Vientos helados Punto de rocío Humedad Viento Precip. Alt Actualizado Tipo
                   

Watches & Warnings

Special Statement
Issued: 11:37 AM CDT Mar. 28, 2017 – National Weather Service

... Areas of dense fog across northern Brown County will continue
into early afternoon...

The latest satellite and webcams images indicated dense fog,
with visibilities of a quarter of a mile or less moved southwest
into portion of the Green Bay metropolitan area late this morning,
including locations in and around the Leo frigo bridge and the
port of Green Bay. The dense fog will continue to spread southwest
across northeast portions of Green Bay into early this afternoon.

If you must use the Leo frigo bridge or are near the port of
Green Bay early this afternoon, slow down and allow extra time to
reach your destination and use your low beam headlights. The
dense fog should burn off by mid afternoon.


Eckberg